sensor_id;sensor_type;location;lat;lon;timestamp;P1;durP1;ratioP1;P2;durP2;ratioP2
76310;SDS011;65120;59.304;18.294;2023-09-07T00:01:32;0.70;;;0.20;;
76310;SDS011;65120;59.304;18.294;2023-09-07T00:03:59;0.28;;;0.20;;
76310;SDS011;65120;59.304;18.294;2023-09-07T00:06:28;2.08;;;0.20;;
76310;SDS011;65120;59.304;18.294;2023-09-07T00:08:55;1.98;;;0.20;;
76310;SDS011;65120;59.304;18.294;2023-09-07T00:11:22;2.40;;;0.17;;
76310;SDS011;65120;59.304;18.294;2023-09-07T00:13:50;0.30;;;0.20;;
76310;SDS011;65120;59.304;18.294;2023-09-07T00:16:17;2.35;;;0.30;;
76310;SDS011;65120;59.304;18.294;2023-09-07T00:18:44;0.32;;;0.20;;
76310;SDS011;65120;59.304;18.294;2023-09-07T00:21:11;1.20;;;0.20;;
76310;SDS011;65120;59.304;18.294;2023-09-07T00:23:39;0.82;;;0.20;;
76310;SDS011;65120;59.304;18.294;2023-09-07T00:26:06;2.05;;;1.00;;
76310;SDS011;65120;59.304;18.294;2023-09-07T00:28:33;1.67;;;0.20;;
76310;SDS011;65120;59.304;18.294;2023-09-07T00:31:01;0.75;;;0.20;;
76310;SDS011;65120;59.304;18.294;2023-09-07T00:33:28;0.60;;;0.20;;
76310;SDS011;65120;59.304;18.294;2023-09-07T00:35:56;1.85;;;0.20;;
76310;SDS011;65120;59.304;18.294;2023-09-07T00:38:22;3.65;;;0.55;;
76310;SDS011;65120;59.304;18.294;2023-09-07T00:40:49;0.65;;;0.20;;
76310;SDS011;65120;59.304;18.294;2023-09-07T00:43:16;1.23;;;0.20;;
76310;SDS011;65120;59.304;18.294;2023-09-07T00:45:43;1.30;;;0.20;;
76310;SDS011;65120;59.304;18.294;2023-09-07T00:48:13;2.38;;;0.20;;
76310;SDS011;65120;59.304;18.294;2023-09-07T00:50:41;0.93;;;0.20;;
76310;SDS011;65120;59.304;18.294;2023-09-07T00:53:09;3.42;;;0.20;;
76310;SDS011;65120;59.304;18.294;2023-09-07T00:55:37;3.15;;;0.30;;
76310;SDS011;65120;59.304;18.294;2023-09-07T00:58:04;0.20;;;0.17;;
76310;SDS011;65120;59.304;18.294;2023-09-07T01:00:31;2.58;;;0.30;;
76310;SDS011;65120;59.304;18.294;2023-09-07T01:03:00;1.30;;;0.28;;
76310;SDS011;65120;59.304;18.294;2023-09-07T01:05:29;2.85;;;0.20;;
76310;SDS011;65120;59.304;18.294;2023-09-07T01:08:03;1.67;;;0.20;;
76310;SDS011;65120;59.304;18.294;2023-09-07T01:10:36;0.20;;;0.17;;
76310;SDS011;65120;59.304;18.294;2023-09-07T01:13:03;0.30;;;0.20;;
76310;SDS011;65120;59.304;18.294;2023-09-07T01:15:30;1.73;;;0.20;;
76310;SDS011;65120;59.304;18.294;2023-09-07T01:17:57;0.28;;;0.20;;
76310;SDS011;65120;59.304;18.294;2023-09-07T01:20:25;0.30;;;0.20;;
76310;SDS011;65120;59.304;18.294;2023-09-07T01:22:54;0.40;;;0.13;;
76310;SDS011;65120;59.304;18.294;2023-09-07T01:25:21;2.38;;;0.47;;
76310;SDS011;65120;59.304;18.294;2023-09-07T01:27:50;2.65;;;0.20;;
76310;SDS011;65120;59.304;18.294;2023-09-07T01:30:17;0.82;;;0.20;;
76310;SDS011;65120;59.304;18.294;2023-09-07T01:32:44;0.73;;;0.20;;
76310;SDS011;65120;59.304;18.294;2023-09-07T01:35:11;1.05;;;0.20;;
76310;SDS011;65120;59.304;18.294;2023-09-07T01:37:43;0.52;;;0.22;;
76310;SDS011;65120;59.304;18.294;2023-09-07T01:40:11;1.38;;;0.20;;
76310;SDS011;65120;59.304;18.294;2023-09-07T01:42:38;2.25;;;0.20;;
76310;SDS011;65120;59.304;18.294;2023-09-07T01:45:06;2.60;;;0.30;;
76310;SDS011;65120;59.304;18.294;2023-09-07T01:47:33;1.05;;;0.25;;
76310;SDS011;65120;59.304;18.294;2023-09-07T01:50:00;1.45;;;0.22;;
76310;SDS011;65120;59.304;18.294;2023-09-07T01:52:27;1.50;;;0.20;;
76310;SDS011;65120;59.304;18.294;2023-09-07T01:54:55;0.40;;;0.10;;
76310;SDS011;65120;59.304;18.294;2023-09-07T01:57:23;2.63;;;0.30;;
76310;SDS011;65120;59.304;18.294;2023-09-07T01:59:50;3.45;;;0.30;;
76310;SDS011;65120;59.304;18.294;2023-09-07T02:02:17;2.38;;;0.20;;
76310;SDS011;65120;59.304;18.294;2023-09-07T02:04:44;1.85;;;0.20;;
76310;SDS011;65120;59.304;18.294;2023-09-07T02:07:11;0.93;;;0.20;;
76310;SDS011;65120;59.304;18.294;2023-09-07T02:09:40;4.18;;;0.20;;
76310;SDS011;65120;59.304;18.294;2023-09-07T02:12:07;2.05;;;0.20;;
76310;SDS011;65120;59.304;18.294;2023-09-07T02:14:37;0.85;;;0.20;;
76310;SDS011;65120;59.304;18.294;2023-09-07T02:17:04;0.98;;;0.20;;
76310;SDS011;65120;59.304;18.294;2023-09-07T02:19:31;0.55;;;0.20;;
76310;SDS011;65120;59.304;18.294;2023-09-07T02:21:58;0.30;;;0.20;;
76310;SDS011;65120;59.304;18.294;2023-09-07T02:24:25;1.17;;;0.20;;
76310;SDS011;65120;59.304;18.294;2023-09-07T02:26:52;0.50;;;0.20;;
76310;SDS011;65120;59.304;18.294;2023-09-07T02:29:18;2.95;;;0.20;;
76310;SDS011;65120;59.304;18.294;2023-09-07T02:31:47;0.30;;;0.17;;
76310;SDS011;65120;59.304;18.294;2023-09-07T02:34:13;0.82;;;0.20;;
76310;SDS011;65120;59.304;18.294;2023-09-07T02:36:40;0.82;;;0.20;;
76310;SDS011;65120;59.304;18.294;2023-09-07T02:39:07;3.20;;;0.30;;
76310;SDS011;65120;59.304;18.294;2023-09-07T02:41:36;1.40;;;0.20;;
76310;SDS011;65120;59.304;18.294;2023-09-07T02:44:03;0.80;;;0.52;;
76310;SDS011;65120;59.304;18.294;2023-09-07T02:46:31;1.52;;;0.10;;
76310;SDS011;65120;59.304;18.294;2023-09-07T02:48:59;1.20;;;0.15;;
76310;SDS011;65120;59.304;18.294;2023-09-07T02:51:26;0.82;;;0.20;;
76310;SDS011;65120;59.304;18.294;2023-09-07T02:53:53;0.40;;;0.17;;
76310;SDS011;65120;59.304;18.294;2023-09-07T02:56:20;0.40;;;0.10;;
76310;SDS011;65120;59.304;18.294;2023-09-07T02:58:47;0.82;;;0.20;;
76310;SDS011;65120;59.304;18.294;2023-09-07T03:01:14;0.90;;;0.10;;
76310;SDS011;65120;59.304;18.294;2023-09-07T03:03:44;2.75;;;0.15;;
76310;SDS011;65120;59.304;18.294;2023-09-07T03:06:13;2.58;;;0.20;;
76310;SDS011;65120;59.304;18.294;2023-09-07T03:08:41;2.05;;;0.20;;
76310;SDS011;65120;59.304;18.294;2023-09-07T03:11:08;0.40;;;0.20;;
76310;SDS011;65120;59.304;18.294;2023-09-07T03:13:36;0.85;;;0.20;;
76310;SDS011;65120;59.304;18.294;2023-09-07T03:16:03;0.45;;;0.20;;
76310;SDS011;65120;59.304;18.294;2023-09-07T03:18:30;0.63;;;0.10;;
76310;SDS011;65120;59.304;18.294;2023-09-07T03:20:58;5.38;;;0.22;;
76310;SDS011;65120;59.304;18.294;2023-09-07T03:23:28;2.03;;;0.20;;
76310;SDS011;65120;59.304;18.294;2023-09-07T03:25:55;1.13;;;0.20;;
76310;SDS011;65120;59.304;18.294;2023-09-07T03:28:22;2.40;;;0.20;;
76310;SDS011;65120;59.304;18.294;2023-09-07T03:30:50;1.85;;;0.20;;
76310;SDS011;65120;59.304;18.294;2023-09-07T03:33:17;0.38;;;0.15;;
76310;SDS011;65120;59.304;18.294;2023-09-07T03:35:44;0.20;;;0.20;;
76310;SDS011;65120;59.304;18.294;2023-09-07T03:38:10;0.47;;;0.10;;
76310;SDS011;65120;59.304;18.294;2023-09-07T03:40:39;2.35;;;0.20;;
76310;SDS011;65120;59.304;18.294;2023-09-07T03:43:06;0.40;;;0.20;;
76310;SDS011;65120;59.304;18.294;2023-09-07T03:45:33;1.10;;;0.13;;
76310;SDS011;65120;59.304;18.294;2023-09-07T03:48:00;0.88;;;0.10;;
76310;SDS011;65120;59.304;18.294;2023-09-07T03:50:27;3.10;;;0.20;;
76310;SDS011;65120;59.304;18.294;2023-09-07T03:52:54;1.45;;;0.20;;
76310;SDS011;65120;59.304;18.294;2023-09-07T03:55:21;0.60;;;0.20;;
76310;SDS011;65120;59.304;18.294;2023-09-07T03:57:50;0.50;;;0.20;;
76310;SDS011;65120;59.304;18.294;2023-09-07T04:00:17;1.67;;;0.20;;
76310;SDS011;65120;59.304;18.294;2023-09-07T04:02:45;4.07;;;0.52;;
76310;SDS011;65120;59.304;18.294;2023-09-07T04:05:12;1.38;;;0.95;;
76310;SDS011;65120;59.304;18.294;2023-09-07T04:07:39;0.90;;;0.20;;
76310;SDS011;65120;59.304;18.294;2023-09-07T04:10:06;0.63;;;0.17;;
76310;SDS011;65120;59.304;18.294;2023-09-07T04:12:33;0.52;;;0.20;;
76310;SDS011;65120;59.304;18.294;2023-09-07T04:15:01;3.00;;;0.20;;
76310;SDS011;65120;59.304;18.294;2023-09-07T04:17:29;0.85;;;0.20;;
76310;SDS011;65120;59.304;18.294;2023-09-07T04:19:57;2.20;;;0.30;;
76310;SDS011;65120;59.304;18.294;2023-09-07T04:22:24;2.47;;;0.43;;
76310;SDS011;65120;59.304;18.294;2023-09-07T04:24:51;1.95;;;0.20;;
76310;SDS011;65120;59.304;18.294;2023-09-07T04:27:18;0.60;;;0.30;;
76310;SDS011;65120;59.304;18.294;2023-09-07T04:29:45;0.50;;;0.30;;
76310;SDS011;65120;59.304;18.294;2023-09-07T04:32:14;6.70;;;0.60;;
76310;SDS011;65120;59.304;18.294;2023-09-07T04:34:41;3.28;;;0.52;;
76310;SDS011;65120;59.304;18.294;2023-09-07T04:37:07;2.60;;;0.80;;
76310;SDS011;65120;59.304;18.294;2023-09-07T04:39:34;3.97;;;0.50;;
76310;SDS011;65120;59.304;18.294;2023-09-07T04:42:01;4.10;;;0.73;;
76310;SDS011;65120;59.304;18.294;2023-09-07T04:44:28;2.33;;;0.60;;
76310;SDS011;65120;59.304;18.294;2023-09-07T04:46:55;4.72;;;1.00;;
76310;SDS011;65120;59.304;18.294;2023-09-07T04:49:24;2.83;;;0.63;;
76310;SDS011;65120;59.304;18.294;2023-09-07T04:51:52;1.52;;;0.70;;
76310;SDS011;65120;59.304;18.294;2023-09-07T04:54:20;2.25;;;1.08;;
76310;SDS011;65120;59.304;18.294;2023-09-07T04:56:47;1.55;;;0.95;;
76310;SDS011;65120;59.304;18.294;2023-09-07T04:59:14;1.70;;;0.85;;
76310;SDS011;65120;59.304;18.294;2023-09-07T05:01:41;3.75;;;1.60;;
76310;SDS011;65120;59.304;18.294;2023-09-07T05:04:08;2.58;;;0.90;;
76310;SDS011;65120;59.304;18.294;2023-09-07T05:06:36;2.47;;;1.45;;
76310;SDS011;65120;59.304;18.294;2023-09-07T05:09:05;4.97;;;1.77;;
76310;SDS011;65120;59.304;18.294;2023-09-07T05:11:32;1.73;;;1.00;;
76310;SDS011;65120;59.304;18.294;2023-09-07T05:14:00;10.73;;;1.55;;
76310;SDS011;65120;59.304;18.294;2023-09-07T05:16:27;4.50;;;1.27;;
76310;SDS011;65120;59.304;18.294;2023-09-07T05:18:54;6.05;;;1.58;;
76310;SDS011;65120;59.304;18.294;2023-09-07T05:21:21;6.65;;;1.50;;
76310;SDS011;65120;59.304;18.294;2023-09-07T05:23:49;2.63;;;1.75;;
76310;SDS011;65120;59.304;18.294;2023-09-07T05:26:20;7.82;;;1.85;;
76310;SDS011;65120;59.304;18.294;2023-09-07T05:28:49;4.18;;;1.83;;
76310;SDS011;65120;59.304;18.294;2023-09-07T05:31:16;8.85;;;1.92;;
76310;SDS011;65120;59.304;18.294;2023-09-07T05:33:43;1.90;;;1.20;;
76310;SDS011;65120;59.304;18.294;2023-09-07T05:36:10;4.40;;;1.33;;
76310;SDS011;65120;59.304;18.294;2023-09-07T05:38:36;4.03;;;1.27;;
76310;SDS011;65120;59.304;18.294;2023-09-07T05:41:05;4.05;;;1.67;;
76310;SDS011;65120;59.304;18.294;2023-09-07T05:43:33;3.38;;;1.63;;
76310;SDS011;65120;59.304;18.294;2023-09-07T05:46:00;4.28;;;1.05;;
76310;SDS011;65120;59.304;18.294;2023-09-07T05:48:27;4.70;;;1.30;;
76310;SDS011;65120;59.304;18.294;2023-09-07T05:50:54;3.55;;;1.42;;
76310;SDS011;65120;59.304;18.294;2023-09-07T05:53:21;4.05;;;1.73;;
76310;SDS011;65120;59.304;18.294;2023-09-07T05:55:49;3.42;;;1.42;;
76310;SDS011;65120;59.304;18.294;2023-09-07T05:58:18;3.92;;;1.20;;
76310;SDS011;65120;59.304;18.294;2023-09-07T06:00:45;3.55;;;1.00;;
76310;SDS011;65120;59.304;18.294;2023-09-07T06:03:11;2.22;;;1.08;;
76310;SDS011;65120;59.304;18.294;2023-09-07T06:05:39;3.80;;;1.88;;
76310;SDS011;65120;59.304;18.294;2023-09-07T06:08:06;3.13;;;1.20;;
76310;SDS011;65120;59.304;18.294;2023-09-07T06:10:33;8.32;;;1.00;;
76310;SDS011;65120;59.304;18.294;2023-09-07T06:13:00;3.92;;;0.80;;
76310;SDS011;65120;59.304;18.294;2023-09-07T06:15:29;4.00;;;1.00;;
76310;SDS011;65120;59.304;18.294;2023-09-07T06:17:56;4.20;;;0.60;;
76310;SDS011;65120;59.304;18.294;2023-09-07T06:20:23;3.40;;;0.70;;
76310;SDS011;65120;59.304;18.294;2023-09-07T06:22:50;1.15;;;0.60;;
76310;SDS011;65120;59.304;18.294;2023-09-07T06:25:17;1.88;;;0.50;;
76310;SDS011;65120;59.304;18.294;2023-09-07T06:27:44;0.95;;;0.50;;
76310;SDS011;65120;59.304;18.294;2023-09-07T06:30:11;3.10;;;0.70;;
76310;SDS011;65120;59.304;18.294;2023-09-07T06:32:39;4.63;;;0.60;;
76310;SDS011;65120;59.304;18.294;2023-09-07T06:35:07;0.88;;;0.40;;
76310;SDS011;65120;59.304;18.294;2023-09-07T06:37:35;2.58;;;0.40;;
76310;SDS011;65120;59.304;18.294;2023-09-07T06:40:06;2.60;;;0.30;;
76310;SDS011;65120;59.304;18.294;2023-09-07T06:42:34;1.48;;;0.40;;
76310;SDS011;65120;59.304;18.294;2023-09-07T06:45:02;1.73;;;0.40;;
76310;SDS011;65120;59.304;18.294;2023-09-07T06:47:29;1.52;;;0.50;;
76310;SDS011;65120;59.304;18.294;2023-09-07T06:49:57;3.53;;;0.35;;
76310;SDS011;65120;59.304;18.294;2023-09-07T06:52:24;2.22;;;0.40;;
76310;SDS011;65120;59.304;18.294;2023-09-07T06:54:51;4.82;;;0.60;;
76310;SDS011;65120;59.304;18.294;2023-09-07T06:57:18;3.13;;;0.65;;
76310;SDS011;65120;59.304;18.294;2023-09-07T06:59:45;1.40;;;0.40;;
76310;SDS011;65120;59.304;18.294;2023-09-07T07:02:12;5.53;;;0.50;;
76310;SDS011;65120;59.304;18.294;2023-09-07T07:04:39;3.90;;;0.50;;
76310;SDS011;65120;59.304;18.294;2023-09-07T07:07:07;0.77;;;0.40;;
76310;SDS011;65120;59.304;18.294;2023-09-07T07:09:34;2.15;;;0.40;;
76310;SDS011;65120;59.304;18.294;2023-09-07T07:12:01;0.85;;;0.40;;
76310;SDS011;65120;59.304;18.294;2023-09-07T07:14:29;1.92;;;0.30;;
76310;SDS011;65120;59.304;18.294;2023-09-07T07:16:56;5.78;;;0.63;;
76310;SDS011;65120;59.304;18.294;2023-09-07T07:19:23;5.15;;;1.52;;
76310;SDS011;65120;59.304;18.294;2023-09-07T07:21:52;0.68;;;0.30;;
76310;SDS011;65120;59.304;18.294;2023-09-07T07:24:20;1.65;;;0.40;;
76310;SDS011;65120;59.304;18.294;2023-09-07T07:26:47;4.13;;;0.40;;
76310;SDS011;65120;59.304;18.294;2023-09-07T07:29:14;0.52;;;0.32;;
76310;SDS011;65120;59.304;18.294;2023-09-07T07:31:41;3.03;;;0.30;;
76310;SDS011;65120;59.304;18.294;2023-09-07T07:34:08;1.38;;;0.25;;
76310;SDS011;65120;59.304;18.294;2023-09-07T07:36:35;0.63;;;0.22;;
76310;SDS011;65120;59.304;18.294;2023-09-07T07:39:02;3.00;;;0.30;;
76310;SDS011;65120;59.304;18.294;2023-09-07T07:41:33;1.50;;;0.30;;
76310;SDS011;65120;59.304;18.294;2023-09-07T07:44:00;2.55;;;0.30;;
76310;SDS011;65120;59.304;18.294;2023-09-07T07:46:27;1.30;;;0.30;;
76310;SDS011;65120;59.304;18.294;2023-09-07T07:48:54;0.70;;;0.20;;
76310;SDS011;65120;59.304;18.294;2023-09-07T07:51:21;1.25;;;0.20;;
76310;SDS011;65120;59.304;18.294;2023-09-07T07:53:48;3.70;;;0.30;;
76310;SDS011;65120;59.304;18.294;2023-09-07T07:56:15;3.90;;;0.30;;
76310;SDS011;65120;59.304;18.294;2023-09-07T07:58:43;0.55;;;0.30;;
76310;SDS011;65120;59.304;18.294;2023-09-07T08:01:14;0.75;;;0.40;;
76310;SDS011;65120;59.304;18.294;2023-09-07T08:03:41;8.35;;;0.20;;
76310;SDS011;65120;59.304;18.294;2023-09-07T08:06:08;1.10;;;0.30;;
76310;SDS011;65120;59.304;18.294;2023-09-07T08:08:36;0.77;;;0.28;;
76310;SDS011;65120;59.304;18.294;2023-09-07T08:11:03;0.70;;;0.28;;
76310;SDS011;65120;59.304;18.294;2023-09-07T08:13:31;0.40;;;0.30;;
76310;SDS011;65120;59.304;18.294;2023-09-07T08:16:01;1.95;;;0.30;;
76310;SDS011;65120;59.304;18.294;2023-09-07T08:18:28;0.55;;;0.30;;
76310;SDS011;65120;59.304;18.294;2023-09-07T08:20:55;0.60;;;0.30;;
76310;SDS011;65120;59.304;18.294;2023-09-07T08:23:22;0.98;;;0.20;;
76310;SDS011;65120;59.304;18.294;2023-09-07T08:25:50;1.13;;;0.20;;
76310;SDS011;65120;59.304;18.294;2023-09-07T08:28:18;4.38;;;0.60;;
76310;SDS011;65120;59.304;18.294;2023-09-07T08:30:48;0.95;;;0.28;;
76310;SDS011;65120;59.304;18.294;2023-09-07T08:33:19;0.35;;;0.20;;
76310;SDS011;65120;59.304;18.294;2023-09-07T08:35:51;1.27;;;0.40;;
76310;SDS011;65120;59.304;18.294;2023-09-07T08:38:19;1.38;;;0.30;;
76310;SDS011;65120;59.304;18.294;2023-09-07T08:40:50;2.08;;;0.30;;
76310;SDS011;65120;59.304;18.294;2023-09-07T08:43:17;1.35;;;0.32;;
76310;SDS011;65120;59.304;18.294;2023-09-07T08:45:48;1.38;;;0.30;;
76310;SDS011;65120;59.304;18.294;2023-09-07T08:48:17;0.77;;;0.30;;
76310;SDS011;65120;59.304;18.294;2023-09-07T08:50:46;2.40;;;0.20;;
76310;SDS011;65120;59.304;18.294;2023-09-07T08:53:17;1.85;;;0.20;;
76310;SDS011;65120;59.304;18.294;2023-09-07T08:55:45;1.55;;;0.22;;
76310;SDS011;65120;59.304;18.294;2023-09-07T08:58:12;1.10;;;0.30;;
76310;SDS011;65120;59.304;18.294;2023-09-07T09:00:40;0.70;;;0.30;;
76310;SDS011;65120;59.304;18.294;2023-09-07T09:03:09;1.20;;;0.30;;
76310;SDS011;65120;59.304;18.294;2023-09-07T09:05:40;1.55;;;0.28;;
76310;SDS011;65120;59.304;18.294;2023-09-07T09:08:07;2.33;;;0.30;;
76310;SDS011;65120;59.304;18.294;2023-09-07T09:10:37;0.47;;;0.30;;
76310;SDS011;65120;59.304;18.294;2023-09-07T09:13:04;4.97;;;0.68;;
76310;SDS011;65120;59.304;18.294;2023-09-07T09:15:31;0.60;;;0.30;;
76310;SDS011;65120;59.304;18.294;2023-09-07T09:17:58;1.08;;;0.20;;
76310;SDS011;65120;59.304;18.294;2023-09-07T09:20:37;0.77;;;0.28;;
76310;SDS011;65120;59.304;18.294;2023-09-07T09:23:05;2.38;;;0.30;;
76310;SDS011;65120;59.304;18.294;2023-09-07T09:25:32;0.77;;;0.30;;
76310;SDS011;65120;59.304;18.294;2023-09-07T09:27:59;4.70;;;0.30;;
76310;SDS011;65120;59.304;18.294;2023-09-07T09:30:26;0.50;;;0.28;;
76310;SDS011;65120;59.304;18.294;2023-09-07T09:32:53;1.67;;;0.30;;
76310;SDS011;65120;59.304;18.294;2023-09-07T09:35:20;1.55;;;0.30;;
76310;SDS011;65120;59.304;18.294;2023-09-07T09:37:48;2.08;;;0.20;;
76310;SDS011;65120;59.304;18.294;2023-09-07T09:40:16;0.60;;;0.30;;
76310;SDS011;65120;59.304;18.294;2023-09-07T09:42:44;1.60;;;0.20;;
76310;SDS011;65120;59.304;18.294;2023-09-07T09:45:11;3.28;;;0.30;;
76310;SDS011;65120;59.304;18.294;2023-09-07T09:47:39;1.77;;;0.30;;
76310;SDS011;65120;59.304;18.294;2023-09-07T09:50:07;2.22;;;0.30;;
76310;SDS011;65120;59.304;18.294;2023-09-07T09:52:35;1.13;;;0.20;;
76310;SDS011;65120;59.304;18.294;2023-09-07T09:55:04;1.20;;;0.20;;
76310;SDS011;65120;59.304;18.294;2023-09-07T09:57:34;0.30;;;0.30;;
76310;SDS011;65120;59.304;18.294;2023-09-07T10:00:02;1.40;;;0.30;;
76310;SDS011;65120;59.304;18.294;2023-09-07T10:02:44;0.55;;;0.20;;
76310;SDS011;65120;59.304;18.294;2023-09-07T10:05:16;6.47;;;0.30;;
76310;SDS011;65120;59.304;18.294;2023-09-07T10:07:45;1.95;;;0.30;;
76310;SDS011;65120;59.304;18.294;2023-09-07T10:10:15;1.20;;;0.30;;
76310;SDS011;65120;59.304;18.294;2023-09-07T10:12:50;2.58;;;0.20;;
76310;SDS011;65120;59.304;18.294;2023-09-07T10:15:22;0.35;;;0.20;;
76310;SDS011;65120;59.304;18.294;2023-09-07T10:17:50;1.30;;;0.20;;
76310;SDS011;65120;59.304;18.294;2023-09-07T10:20:18;0.35;;;0.20;;
76310;SDS011;65120;59.304;18.294;2023-09-07T10:22:49;1.60;;;0.30;;
76310;SDS011;65120;59.304;18.294;2023-09-07T10:25:19;0.50;;;0.30;;
76310;SDS011;65120;59.304;18.294;2023-09-07T10:27:48;0.70;;;0.25;;
76310;SDS011;65120;59.304;18.294;2023-09-07T10:30:15;3.35;;;0.40;;
76310;SDS011;65120;59.304;18.294;2023-09-07T10:35:13;1.70;;;0.30;;
76310;SDS011;65120;59.304;18.294;2023-09-07T10:37:41;2.25;;;0.30;;
76310;SDS011;65120;59.304;18.294;2023-09-07T10:40:11;2.70;;;0.20;;
76310;SDS011;65120;59.304;18.294;2023-09-07T10:42:39;2.42;;;1.30;;
76310;SDS011;65120;59.304;18.294;2023-09-07T10:45:11;0.55;;;0.20;;
76310;SDS011;65120;59.304;18.294;2023-09-07T10:47:41;1.17;;;0.30;;
76310;SDS011;65120;59.304;18.294;2023-09-07T10:50:09;0.55;;;0.28;;
76310;SDS011;65120;59.304;18.294;2023-09-07T10:52:38;1.02;;;0.73;;
76310;SDS011;65120;59.304;18.294;2023-09-07T10:55:06;2.20;;;0.50;;
76310;SDS011;65120;59.304;18.294;2023-09-07T10:57:41;2.05;;;0.30;;
76310;SDS011;65120;59.304;18.294;2023-09-07T11:00:08;2.17;;;0.30;;
76310;SDS011;65120;59.304;18.294;2023-09-07T11:02:39;7.00;;;0.60;;
76310;SDS011;65120;59.304;18.294;2023-09-07T11:05:06;2.03;;;0.30;;
76310;SDS011;65120;59.304;18.294;2023-09-07T11:07:33;0.25;;;0.25;;
76310;SDS011;65120;59.304;18.294;2023-09-07T11:10:01;0.70;;;0.28;;
76310;SDS011;65120;59.304;18.294;2023-09-07T11:12:29;1.35;;;0.22;;
76310;SDS011;65120;59.304;18.294;2023-09-07T11:14:56;1.08;;;0.30;;
76310;SDS011;65120;59.304;18.294;2023-09-07T11:17:28;2.25;;;0.25;;
76310;SDS011;65120;59.304;18.294;2023-09-07T11:19:55;0.90;;;0.20;;
76310;SDS011;65120;59.304;18.294;2023-09-07T11:22:22;0.93;;;0.30;;
76310;SDS011;65120;59.304;18.294;2023-09-07T11:24:49;0.68;;;0.30;;
76310;SDS011;65120;59.304;18.294;2023-09-07T11:27:17;1.02;;;0.30;;
76310;SDS011;65120;59.304;18.294;2023-09-07T11:29:50;1.80;;;0.30;;
76310;SDS011;65120;59.304;18.294;2023-09-07T11:32:19;3.80;;;0.50;;
76310;SDS011;65120;59.304;18.294;2023-09-07T11:34:49;1.52;;;0.30;;
76310;SDS011;65120;59.304;18.294;2023-09-07T11:37:17;2.88;;;0.30;;
76310;SDS011;65120;59.304;18.294;2023-09-07T11:39:44;1.55;;;0.30;;
76310;SDS011;65120;59.304;18.294;2023-09-07T11:42:11;1.15;;;0.20;;
76310;SDS011;65120;59.304;18.294;2023-09-07T11:44:38;1.08;;;0.17;;
76310;SDS011;65120;59.304;18.294;2023-09-07T11:47:05;0.55;;;0.22;;
76310;SDS011;65120;59.304;18.294;2023-09-07T11:49:32;1.83;;;0.20;;
76310;SDS011;65120;59.304;18.294;2023-09-07T11:52:00;2.88;;;0.20;;
76310;SDS011;65120;59.304;18.294;2023-09-07T11:54:27;0.70;;;0.20;;
76310;SDS011;65120;59.304;18.294;2023-09-07T11:56:54;0.82;;;0.20;;
76310;SDS011;65120;59.304;18.294;2023-09-07T11:59:21;2.83;;;0.10;;
76310;SDS011;65120;59.304;18.294;2023-09-07T12:01:48;5.25;;;0.20;;
76310;SDS011;65120;59.304;18.294;2023-09-07T12:04:15;2.90;;;0.20;;
76310;SDS011;65120;59.304;18.294;2023-09-07T12:06:42;0.85;;;0.20;;
76310;SDS011;65120;59.304;18.294;2023-09-07T12:09:11;1.85;;;0.20;;
76310;SDS011;65120;59.304;18.294;2023-09-07T12:11:37;0.95;;;0.20;;
76310;SDS011;65120;59.304;18.294;2023-09-07T12:14:04;1.15;;;0.20;;
76310;SDS011;65120;59.304;18.294;2023-09-07T12:16:31;5.72;;;0.20;;
76310;SDS011;65120;59.304;18.294;2023-09-07T12:18:58;0.80;;;0.10;;
76310;SDS011;65120;59.304;18.294;2023-09-07T12:21:25;1.23;;;0.30;;
76310;SDS011;65120;59.304;18.294;2023-09-07T12:23:52;0.73;;;0.20;;
76310;SDS011;65120;59.304;18.294;2023-09-07T12:26:20;1.58;;;0.32;;
76310;SDS011;65120;59.304;18.294;2023-09-07T12:28:47;3.13;;;0.20;;
76310;SDS011;65120;59.304;18.294;2023-09-07T12:31:14;2.80;;;0.20;;
76310;SDS011;65120;59.304;18.294;2023-09-07T12:33:41;1.80;;;0.20;;
76310;SDS011;65120;59.304;18.294;2023-09-07T12:36:08;0.47;;;0.10;;
76310;SDS011;65120;59.304;18.294;2023-09-07T12:38:36;3.88;;;0.20;;
76310;SDS011;65120;59.304;18.294;2023-09-07T12:41:03;1.50;;;0.10;;
76310;SDS011;65120;59.304;18.294;2023-09-07T12:43:32;0.85;;;0.20;;
76310;SDS011;65120;59.304;18.294;2023-09-07T12:45:58;1.63;;;0.20;;
76310;SDS011;65120;59.304;18.294;2023-09-07T12:48:25;1.00;;;0.20;;
76310;SDS011;65120;59.304;18.294;2023-09-07T12:50:53;1.05;;;0.20;;
76310;SDS011;65120;59.304;18.294;2023-09-07T12:53:20;0.68;;;0.30;;
76310;SDS011;65120;59.304;18.294;2023-09-07T12:55:50;1.13;;;0.30;;
76310;SDS011;65120;59.304;18.294;2023-09-07T12:58:18;2.30;;;0.20;;
76310;SDS011;65120;59.304;18.294;2023-09-07T13:00:46;1.80;;;0.20;;
76310;SDS011;65120;59.304;18.294;2023-09-07T13:03:16;2.33;;;0.20;;
76310;SDS011;65120;59.304;18.294;2023-09-07T13:05:43;3.05;;;0.20;;
76310;SDS011;65120;59.304;18.294;2023-09-07T13:08:10;1.40;;;0.20;;
76310;SDS011;65120;59.304;18.294;2023-09-07T13:10:37;1.48;;;0.17;;
76310;SDS011;65120;59.304;18.294;2023-09-07T13:13:05;0.30;;;0.13;;
76310;SDS011;65120;59.304;18.294;2023-09-07T13:15:32;1.92;;;0.10;;
76310;SDS011;65120;59.304;18.294;2023-09-07T13:18:00;2.47;;;0.20;;
76310;SDS011;65120;59.304;18.294;2023-09-07T13:20:27;0.50;;;0.15;;
76310;SDS011;65120;59.304;18.294;2023-09-07T13:22:54;2.63;;;0.30;;
76310;SDS011;65120;59.304;18.294;2023-09-07T13:25:20;0.82;;;0.17;;
76310;SDS011;65120;59.304;18.294;2023-09-07T13:27:47;2.17;;;0.10;;
76310;SDS011;65120;59.304;18.294;2023-09-07T13:30:14;1.20;;;0.15;;
76310;SDS011;65120;59.304;18.294;2023-09-07T13:32:41;1.67;;;0.20;;
76310;SDS011;65120;59.304;18.294;2023-09-07T13:35:12;1.02;;;0.10;;
76310;SDS011;65120;59.304;18.294;2023-09-07T13:37:39;2.03;;;0.20;;
76310;SDS011;65120;59.304;18.294;2023-09-07T13:40:06;2.05;;;0.20;;
76310;SDS011;65120;59.304;18.294;2023-09-07T13:42:34;1.45;;;0.20;;
76310;SDS011;65120;59.304;18.294;2023-09-07T13:45:01;3.20;;;0.47;;
76310;SDS011;65120;59.304;18.294;2023-09-07T13:47:28;0.50;;;0.20;;
76310;SDS011;65120;59.304;18.294;2023-09-07T13:49:55;2.63;;;0.20;;
76310;SDS011;65120;59.304;18.294;2023-09-07T13:52:23;1.50;;;0.20;;
76310;SDS011;65120;59.304;18.294;2023-09-07T13:54:51;0.63;;;0.20;;
76310;SDS011;65120;59.304;18.294;2023-09-07T13:57:18;1.73;;;0.20;;
76310;SDS011;65120;59.304;18.294;2023-09-07T13:59:44;0.57;;;0.20;;
76310;SDS011;65120;59.304;18.294;2023-09-07T14:02:11;1.13;;;0.20;;
76310;SDS011;65120;59.304;18.294;2023-09-07T14:04:38;1.02;;;0.20;;
76310;SDS011;65120;59.304;18.294;2023-09-07T14:07:05;3.78;;;0.17;;
76310;SDS011;65120;59.304;18.294;2023-09-07T14:09:34;1.02;;;0.55;;
76310;SDS011;65120;59.304;18.294;2023-09-07T14:12:01;2.65;;;0.30;;
76310;SDS011;65120;59.304;18.294;2023-09-07T14:14:28;0.63;;;0.10;;
76310;SDS011;65120;59.304;18.294;2023-09-07T14:16:55;2.33;;;0.20;;
76310;SDS011;65120;59.304;18.294;2023-09-07T14:19:23;2.67;;;0.20;;
76310;SDS011;65120;59.304;18.294;2023-09-07T14:21:52;0.40;;;0.10;;
76310;SDS011;65120;59.304;18.294;2023-09-07T14:24:19;1.63;;;0.20;;
76310;SDS011;65120;59.304;18.294;2023-09-07T14:26:47;0.60;;;0.10;;
76310;SDS011;65120;59.304;18.294;2023-09-07T14:29:14;0.30;;;0.10;;
76310;SDS011;65120;59.304;18.294;2023-09-07T14:31:41;0.70;;;0.10;;
76310;SDS011;65120;59.304;18.294;2023-09-07T14:34:08;0.20;;;0.03;;
76310;SDS011;65120;59.304;18.294;2023-09-07T14:36:36;2.97;;;0.20;;
76310;SDS011;65120;59.304;18.294;2023-09-07T14:39:04;0.50;;;0.00;;